createdAt,value
2023-01-03T00:00:16.535Z,0.34
2023-01-03T00:02:48.576Z,0.37
2023-01-03T00:05:20.557Z,0.38
2023-01-03T00:07:52.430Z,0.39
2023-01-03T00:10:24.337Z,0.40
2023-01-03T00:12:57.705Z,0.41
2023-01-03T00:15:29.855Z,0.42
2023-01-03T00:18:01.911Z,0.45
2023-01-03T00:20:35.640Z,0.46
2023-01-03T00:23:07.518Z,0.45
2023-01-03T00:25:39.506Z,0.44
2023-01-03T00:28:11.442Z,0.46
2023-01-03T00:30:43.414Z,0.48
2023-01-03T00:33:15.474Z,0.50
2023-01-03T00:35:47.463Z,0.51
2023-01-03T00:38:19.394Z,0.50
2023-01-03T00:40:51.249Z,0.53
2023-01-03T00:43:32.069Z,0.55
2023-01-03T00:46:05.150Z,0.56
2023-01-03T00:48:37.766Z,0.59
2023-01-03T00:51:12.086Z,0.60
2023-01-03T00:53:56.229Z,0.64
2023-01-03T00:56:30.782Z,0.65
2023-01-03T00:59:02.764Z,0.66
2023-01-03T01:01:45.812Z,0.68
2023-01-03T01:04:14.196Z,0.69
2023-01-03T01:06:48.585Z,0.68
2023-01-03T01:09:24.082Z,0.71
2023-01-03T01:11:56.358Z,0.71
2023-01-03T01:14:30.413Z,0.71
2023-01-03T01:17:03.176Z,0.72
2023-01-03T01:19:37.865Z,0.87
2023-01-03T01:22:10.394Z,0.75
2023-01-03T01:24:42.726Z,0.73
2023-01-03T01:27:14.760Z,0.72
2023-01-03T01:29:46.616Z,0.74
2023-01-03T01:32:18.550Z,0.74
2023-01-03T01:34:50.528Z,0.75
2023-01-03T01:37:22.649Z,0.75
2023-01-03T01:39:54.719Z,0.80
2023-01-03T01:42:43.359Z,0.81
2023-01-03T01:45:15.821Z,0.82
2023-01-03T01:48:02.427Z,0.84
2023-01-03T01:50:43.825Z,0.85
2023-01-03T01:53:24.373Z,0.85
2023-01-03T01:55:59.176Z,0.87
2023-01-03T01:58:33.945Z,0.88
2023-01-03T02:01:08.413Z,0.89
2023-01-03T02:03:42.312Z,0.92
2023-01-03T02:06:16.398Z,0.94
2023-01-03T02:08:48.252Z,0.96
2023-01-03T02:11:54.465Z,0.97
2023-01-03T02:14:32.326Z,0.97
2023-01-03T02:17:24.178Z,0.98
2023-01-03T02:20:19.719Z,0.98
2023-01-03T02:23:11.039Z,1.00
2023-01-03T02:26:01.929Z,1.03
2023-01-03T02:28:45.216Z,1.06
2023-01-03T02:31:25.874Z,1.07
2023-01-03T02:34:33.028Z,1.08
2023-01-03T02:37:16.549Z,1.09
2023-01-03T02:39:57.045Z,1.13
2023-01-03T02:42:58.780Z,1.14
2023-01-03T02:45:33.737Z,1.17
2023-01-03T02:48:14.730Z,1.21
2023-01-03T02:50:55.358Z,1.23
2023-01-03T02:53:30.338Z,1.26
2023-01-03T02:56:05.313Z,1.28
2023-01-03T02:58:39.406Z,1.31
2023-01-03T03:01:13.713Z,1.31
2023-01-03T03:03:48.316Z,1.34
2023-01-03T03:06:44.237Z,1.33
2023-01-03T03:09:16.396Z,1.33
2023-01-03T03:12:07.528Z,1.37
2023-01-03T03:14:42.395Z,1.34
2023-01-03T03:17:26.430Z,1.21
2023-01-03T03:20:17.189Z,1.07
2023-01-03T03:23:12.160Z,0.96
2023-01-03T03:25:55.533Z,0.81
2023-01-03T03:28:36.154Z,0.69
2023-01-03T03:31:25.900Z,0.60
2023-01-03T03:34:20.438Z,0.53
2023-01-03T03:37:06.700Z,0.51
2023-01-03T03:39:56.988Z,0.50
2023-01-03T03:42:50.952Z,0.49
2023-01-03T03:45:31.555Z,0.49
2023-01-03T03:48:12.233Z,0.48
2023-01-03T03:51:03.366Z,0.48
2023-01-03T03:53:38.905Z,0.51
2023-01-03T03:56:13.812Z,0.52
2023-01-03T03:58:51.542Z,0.52
2023-01-03T04:01:26.382Z,0.53
2023-01-03T04:04:01.370Z,0.53
2023-01-03T04:06:38.709Z,0.55
2023-01-03T04:09:10.875Z,0.57
2023-01-03T04:11:43.224Z,0.58
2023-01-03T04:14:15.467Z,0.61
2023-01-03T04:16:47.507Z,0.62
2023-01-03T04:19:19.381Z,0.66
2023-01-03T04:21:51.404Z,0.67
2023-01-03T04:24:23.576Z,0.70
2023-01-03T04:26:55.714Z,0.72
2023-01-03T04:29:27.681Z,0.76
2023-01-03T04:31:59.652Z,0.77
2023-01-03T04:34:31.915Z,0.79
2023-01-03T04:37:03.924Z,0.82
2023-01-03T04:39:36.025Z,0.83
2023-01-03T04:42:09.629Z,0.84
2023-01-03T04:44:41.649Z,0.86
2023-01-03T04:47:13.890Z,0.85
2023-01-03T04:49:47.392Z,0.83
2023-01-03T04:52:20.337Z,0.85
2023-01-03T04:54:52.546Z,0.87
2023-01-03T04:57:24.469Z,0.87
2023-01-03T04:59:56.357Z,0.87
2023-01-03T05:02:28.719Z,0.87
2023-01-03T05:05:00.749Z,0.89
2023-01-03T05:07:33.004Z,0.89
2023-01-03T05:10:05.156Z,0.89
2023-01-03T05:12:37.141Z,0.91
2023-01-03T05:15:10.044Z,0.92
2023-01-03T05:17:42.050Z,0.93
2023-01-03T05:20:31.792Z,0.94
2023-01-03T05:23:21.605Z,0.96
2023-01-03T05:25:53.558Z,0.98
2023-01-03T05:28:25.829Z,0.99
2023-01-03T05:30:59.967Z,0.98
2023-01-03T05:33:31.921Z,1.01
2023-01-03T05:36:03.922Z,1.03
2023-01-03T05:38:35.891Z,1.01
2023-01-03T05:41:08.170Z,0.99
2023-01-03T05:43:40.062Z,0.98
2023-01-03T05:46:12.034Z,1.01
2023-01-03T05:48:44.940Z,1.01
2023-01-03T05:51:17.021Z,1.02
2023-01-03T05:53:49.778Z,1.03
2023-01-03T05:56:21.927Z,1.02
2023-01-03T05:58:53.894Z,1.04
2023-01-03T06:01:27.401Z,1.03
2023-01-03T06:03:59.521Z,1.06
2023-01-03T06:06:31.582Z,1.08
2023-01-03T06:09:03.551Z,1.08
2023-01-03T06:11:35.567Z,1.08
2023-01-03T06:14:08.176Z,1.09
2023-01-03T06:16:57.823Z,1.09
2023-01-03T06:19:29.839Z,1.09
2023-01-03T06:22:07.064Z,1.08
2023-01-03T06:24:35.981Z,1.10
2023-01-03T06:27:08.380Z,1.12
2023-01-03T06:29:40.749Z,1.16
2023-01-03T06:32:12.765Z,1.14
2023-01-03T06:34:44.590Z,1.14
2023-01-03T06:37:16.662Z,1.15
2023-01-03T06:39:48.539Z,1.16
2023-01-03T06:42:38.417Z,1.16
2023-01-03T06:45:30.051Z,1.19
2023-01-03T06:48:24.176Z,1.17
2023-01-03T06:51:14.052Z,1.20
2023-01-03T06:53:45.981Z,1.26
2023-01-03T06:56:18.530Z,1.26
2023-01-03T06:58:50.779Z,1.27
2023-01-03T07:01:22.959Z,1.30
2023-01-03T07:03:55.140Z,1.28
2023-01-03T07:06:29.145Z,1.30
2023-01-03T07:09:01.457Z,1.31
2023-01-03T07:11:33.701Z,1.30
2023-01-03T07:14:07.134Z,1.33
2023-01-03T07:16:42.449Z,1.35
2023-01-03T07:19:20.956Z,1.39
2023-01-03T07:21:52.951Z,1.40
2023-01-03T07:24:24.983Z,1.43
2023-01-03T07:26:57.084Z,1.44
2023-01-03T07:29:29.221Z,1.45
2023-01-03T07:32:01.125Z,1.48
2023-01-03T07:34:33.345Z,1.49
2023-01-03T07:37:05.322Z,1.51
2023-01-03T07:39:37.345Z,1.51
2023-01-03T07:42:27.461Z,1.54
2023-01-03T07:44:59.469Z,1.53
2023-01-03T07:47:32.186Z,1.55
2023-01-03T07:50:04.494Z,1.56
2023-01-03T07:52:37.136Z,1.56
2023-01-03T07:55:09.527Z,1.59
2023-01-03T07:57:42.606Z,1.59
2023-01-03T08:00:15.196Z,1.59
2023-01-03T08:02:48.400Z,1.60
2023-01-03T08:05:20.421Z,1.63
2023-01-03T08:07:53.264Z,1.69
2023-01-03T08:10:42.903Z,1.67
2023-01-03T08:13:20.584Z,1.67
2023-01-03T08:15:55.505Z,1.68
2023-01-03T08:18:29.301Z,1.67
2023-01-03T08:21:01.551Z,1.68
2023-01-03T08:23:33.627Z,1.71
2023-01-03T08:26:08.469Z,1.70
2023-01-03T08:28:41.439Z,1.72
2023-01-03T08:31:16.410Z,1.75
2023-01-03T08:33:57.711Z,1.77
2023-01-03T08:36:32.896Z,1.76
2023-01-03T08:39:10.812Z,1.76
2023-01-03T08:41:46.010Z,1.76
2023-01-03T08:44:18.296Z,1.78
2023-01-03T08:46:53.651Z,1.77
2023-01-03T08:49:26.355Z,1.78
2023-01-03T08:51:58.362Z,1.77
2023-01-03T08:54:30.282Z,1.75
2023-01-03T08:57:02.220Z,1.73
2023-01-03T08:59:34.821Z,1.73
2023-01-03T09:02:07.239Z,1.71
2023-01-03T09:04:40.477Z,1.69
2023-01-03T09:07:13.046Z,1.69
2023-01-03T09:09:45.123Z,1.70
2023-01-03T09:12:17.178Z,1.67
2023-01-03T09:14:49.152Z,1.66
2023-01-03T09:17:21.322Z,1.63
2023-01-03T09:19:53.544Z,1.62
2023-01-03T09:22:25.728Z,1.60
2023-01-03T09:24:57.815Z,1.61
2023-01-03T09:27:29.781Z,1.62
2023-01-03T09:30:02.035Z,1.61
2023-01-03T09:32:34.012Z,1.60
2023-01-03T09:35:06.369Z,1.58
2023-01-03T09:37:42.733Z,1.59
2023-01-03T09:40:13.369Z,1.55
2023-01-03T09:43:03.198Z,1.56
2023-01-03T09:45:36.103Z,1.55
2023-01-03T09:48:08.973Z,1.56
2023-01-03T09:51:14.945Z,1.58
2023-01-03T09:53:39.515Z,1.56
2023-01-03T09:56:31.314Z,1.59
2023-01-03T09:59:33.043Z,1.61
2023-01-03T10:02:51.156Z,1.62
2023-01-03T10:05:26.214Z,1.63
2023-01-03T10:08:04.237Z,1.66
2023-01-03T10:10:47.902Z,1.69
2023-01-03T10:13:41.032Z,1.68
2023-01-03T10:16:40.370Z,1.68
2023-01-03T10:19:23.972Z,1.68
2023-01-03T10:21:59.083Z,1.70
2023-01-03T10:24:34.528Z,1.70
2023-01-03T10:27:22.635Z,1.69
2023-01-03T10:29:57.532Z,1.72
2023-01-03T10:32:51.789Z,1.76
2023-01-03T10:35:26.485Z,1.79
2023-01-03T10:37:59.311Z,1.81
2023-01-03T10:40:39.823Z,1.85
2023-01-03T10:43:29.580Z,1.87
2023-01-03T10:46:16.859Z,1.89
2023-01-03T10:49:26.576Z,1.92
2023-01-03T10:51:45.579Z,1.96
2023-01-03T10:54:23.503Z,2.00
2023-01-03T10:56:55.512Z,2.04
2023-01-03T10:59:30.815Z,2.08
2023-01-03T11:02:16.851Z,2.10
2023-01-03T11:04:49.506Z,2.12
2023-01-03T11:07:21.656Z,2.16
2023-01-03T11:09:56.212Z,2.20
2023-01-03T11:12:39.751Z,2.24
2023-01-03T11:15:38.760Z,2.28
2023-01-03T11:18:20.757Z,2.35
2023-01-03T11:20:55.761Z,2.41
2023-01-03T11:23:30.620Z,2.45
2023-01-03T11:26:20.517Z,2.46
2023-01-03T11:28:58.345Z,2.47
2023-01-03T11:31:54.040Z,2.47
2023-01-03T11:35:21.412Z,2.47
2023-01-03T11:37:46.103Z,2.47
2023-01-03T11:40:29.681Z,2.50
2023-01-03T11:43:19.765Z,2.51
2023-01-03T11:46:15.872Z,2.50
2023-01-03T11:49:14.714Z,2.53
2023-01-03T11:52:10.323Z,2.55
2023-01-03T11:55:18.125Z,2.57
2023-01-03T11:57:58.730Z,2.60
2023-01-03T12:00:39.757Z,2.61
2023-01-03T12:03:23.524Z,2.66
2023-01-03T12:06:23.606Z,2.66
2023-01-03T12:09:08.183Z,2.66
2023-01-03T12:12:03.911Z,2.69
2023-01-03T12:14:38.739Z,2.72
2023-01-03T12:17:30.605Z,2.76
2023-01-03T12:20:11.116Z,2.79
2023-01-03T12:22:46.097Z,2.84
2023-01-03T12:25:30.090Z,2.87
2023-01-03T12:28:05.038Z,2.93
2023-01-03T12:30:49.733Z,2.96
2023-01-03T12:33:33.919Z,3.01
2023-01-03T12:36:28.164Z,3.04
2023-01-03T12:39:27.532Z,3.06
2023-01-03T12:42:07.861Z,3.14
2023-01-03T12:44:45.647Z,3.17
2023-01-03T12:47:42.103Z,3.20
2023-01-03T12:50:20.240Z,3.24
2023-01-03T12:52:55.219Z,3.31
2023-01-03T12:55:47.789Z,3.28
2023-01-03T12:58:22.855Z,3.34
2023-01-03T13:01:16.619Z,3.37
2023-01-03T13:03:54.738Z,3.37
2023-01-03T13:06:32.825Z,3.43
2023-01-03T13:09:07.721Z,3.48
2023-01-03T13:11:51.148Z,3.62
2023-01-03T13:14:26.035Z,3.61
2023-01-03T13:17:11.281Z,3.67
2023-01-03T13:19:54.788Z,3.70
2023-01-03T13:22:49.175Z,3.76
2023-01-03T13:25:40.038Z,3.81
2023-01-03T13:28:24.872Z,3.86
2023-01-03T13:31:15.677Z,3.88
2023-01-03T13:33:56.346Z,4.03
2023-01-03T13:36:31.908Z,3.87
2023-01-03T13:39:05.397Z,3.89
2023-01-03T13:41:39.834Z,3.84
2023-01-03T13:44:23.479Z,3.86
2023-01-03T13:46:56.561Z,3.79
2023-01-03T13:49:30.087Z,3.83
2023-01-03T13:52:03.802Z,3.81
2023-01-03T13:54:38.331Z,3.83
2023-01-03T13:57:24.885Z,3.93
2023-01-03T14:00:01.891Z,4.01
2023-01-03T14:02:53.450Z,3.97
2023-01-03T14:05:47.621Z,3.99
2023-01-03T14:08:35.376Z,4.01
2023-01-03T14:11:26.467Z,4.04
2023-01-03T14:14:07.358Z,4.03
2023-01-03T14:16:48.787Z,4.05
2023-01-03T14:19:26.646Z,4.11
2023-01-03T14:22:27.637Z,4.13
2023-01-03T14:24:52.817Z,4.16
2023-01-03T14:27:36.431Z,4.18
2023-01-03T14:30:26.344Z,4.17
2023-01-03T14:33:00.408Z,4.11
2023-01-03T14:35:44.796Z,4.12
2023-01-03T14:38:28.298Z,4.11
2023-01-03T14:41:01.859Z,4.10
2023-01-03T14:43:36.028Z,4.18
2023-01-03T14:46:10.887Z,4.18
2023-01-03T14:48:46.311Z,4.17
2023-01-03T14:51:19.978Z,4.19
2023-01-03T14:53:53.917Z,4.19
2023-01-03T14:56:30.759Z,4.23
2023-01-03T14:59:04.615Z,4.27
2023-01-03T15:01:40.042Z,4.32
2023-01-03T15:04:31.795Z,4.33
2023-01-03T15:07:11.247Z,4.42
2023-01-03T15:09:38.601Z,4.59
2023-01-03T15:12:18.765Z,4.49
2023-01-03T15:14:54.020Z,4.48
2023-01-03T15:17:28.301Z,4.55
2023-01-03T15:20:00.677Z,4.52
2023-01-03T15:22:36.394Z,4.53
2023-01-03T15:25:23.829Z,4.52
2023-01-03T15:27:57.263Z,4.52
2023-01-03T15:30:31.808Z,4.54
2023-01-03T15:33:26.154Z,4.52
2023-01-03T15:36:02.190Z,4.52
2023-01-03T15:38:35.399Z,4.59
2023-01-03T15:41:23.738Z,4.83
2023-01-03T15:43:59.102Z,4.76
2023-01-03T15:46:33.697Z,4.91
2023-01-03T15:49:10.477Z,4.75
2023-01-03T15:51:43.664Z,4.77
2023-01-03T15:54:17.686Z,4.75
2023-01-03T15:57:07.115Z,4.81
2023-01-03T15:59:45.605Z,4.83
2023-01-03T16:02:32.928Z,4.82
2023-01-03T16:05:07.200Z,4.79
2023-01-03T16:07:40.552Z,4.83
2023-01-03T16:10:14.388Z,4.85
2023-01-03T16:12:47.431Z,4.89
2023-01-03T16:15:23.634Z,4.91
2023-01-03T16:17:55.832Z,4.92
2023-01-03T16:20:30.055Z,5.05
2023-01-03T16:23:03.326Z,5.05
2023-01-03T16:25:37.734Z,5.07
2023-01-03T16:28:12.620Z,5.07
2023-01-03T16:31:08.384Z,5.10
2023-01-03T16:33:44.078Z,5.18
2023-01-03T16:36:41.960Z,5.10
2023-01-03T16:39:19.886Z,5.14
2023-01-03T16:42:10.928Z,5.11
2023-01-03T16:44:46.707Z,5.11
2023-01-03T16:47:23.711Z,5.08
2023-01-03T16:50:01.055Z,5.09
2023-01-03T16:52:42.749Z,5.07
2023-01-03T16:55:30.588Z,5.00
2023-01-03T16:58:02.823Z,4.94
2023-01-03T17:00:37.177Z,4.89
2023-01-03T17:03:09.843Z,4.91
2023-01-03T17:05:44.105Z,4.85
2023-01-03T17:08:20.729Z,4.84
2023-01-03T17:11:01.331Z,4.80
2023-01-03T17:13:44.422Z,4.85
2023-01-03T17:16:20.066Z,4.83
2023-01-03T17:18:53.681Z,4.83
2023-01-03T17:21:35.344Z,4.85
2023-01-03T17:24:10.698Z,4.87
2023-01-03T17:26:43.851Z,4.82
2023-01-03T17:29:23.979Z,4.81
2023-01-03T17:31:56.654Z,4.82
2023-01-03T17:34:33.302Z,4.80
2023-01-03T17:37:09.773Z,4.77
2023-01-03T17:39:41.998Z,4.72
2023-01-03T17:42:18.762Z,4.70
2023-01-03T17:45:10.183Z,4.71
2023-01-03T17:48:02.723Z,4.72
2023-01-03T17:50:35.304Z,4.80
2023-01-03T17:53:09.230Z,4.64
2023-01-03T17:55:45.925Z,4.56
2023-01-03T17:58:34.348Z,4.54
2023-01-03T18:01:09.175Z,4.52
2023-01-03T18:03:42.341Z,4.53
2023-01-03T18:06:17.679Z,4.51
2023-01-03T18:08:54.102Z,4.50
2023-01-03T18:11:28.517Z,4.50
2023-01-03T18:14:05.191Z,4.51
2023-01-03T18:16:37.423Z,4.50
2023-01-03T18:19:09.993Z,4.52
2023-01-03T18:21:54.903Z,4.50
2023-01-03T18:24:31.913Z,4.50
2023-01-03T18:27:04.873Z,4.49
2023-01-03T18:29:39.042Z,4.47
2023-01-03T18:32:29.256Z,4.49
2023-01-03T18:35:02.818Z,4.49
2023-01-03T18:37:37.706Z,4.49
2023-01-03T18:40:19.892Z,4.51
2023-01-03T18:43:14.359Z,4.52
2023-01-03T18:45:46.809Z,4.54
2023-01-03T18:48:21.863Z,4.49
2023-01-03T18:50:59.043Z,4.50
2023-01-03T18:53:31.925Z,4.54
2023-01-03T18:56:04.567Z,4.49
2023-01-03T18:58:39.955Z,4.47
2023-01-03T19:01:12.081Z,4.47
2023-01-03T19:03:44.921Z,4.49
2023-01-03T19:06:42.994Z,4.47
2023-01-03T19:09:18.373Z,4.45
2023-01-03T19:11:51.368Z,4.46
2023-01-03T19:14:23.786Z,4.48
2023-01-03T19:16:56.356Z,4.44
2023-01-03T19:19:28.687Z,4.37
2023-01-03T19:22:00.689Z,4.40
2023-01-03T19:24:38.914Z,4.36
2023-01-03T19:27:18.440Z,4.34
2023-01-03T19:29:51.641Z,4.36
2023-01-03T19:32:29.218Z,4.33
2023-01-03T19:35:01.056Z,4.36
2023-01-03T19:37:33.232Z,4.29
2023-01-03T19:40:05.600Z,4.28
2023-01-03T19:42:49.894Z,4.24
2023-01-03T19:45:36.693Z,4.22
2023-01-03T19:48:26.584Z,4.24
2023-01-03T19:50:58.538Z,4.16
2023-01-03T19:53:30.583Z,4.18
2023-01-03T19:56:03.925Z,4.12
2023-01-03T19:58:38.886Z,4.15
2023-01-03T20:01:14.031Z,4.04
2023-01-03T20:03:46.430Z,3.98
2023-01-03T20:06:19.744Z,3.97
2023-01-03T20:08:53.389Z,3.94
2023-01-03T20:11:25.350Z,3.96
2023-01-03T20:13:57.571Z,4.09
2023-01-03T20:16:29.972Z,3.99
2023-01-03T20:19:02.750Z,4.01
2023-01-03T20:21:34.943Z,3.93
2023-01-03T20:24:08.420Z,4.01
2023-01-03T20:26:43.080Z,3.99
2023-01-03T20:29:16.154Z,3.99
2023-01-03T20:31:50.218Z,3.92
2023-01-03T20:34:21.909Z,3.94
2023-01-03T20:36:56.214Z,4.09
2023-01-03T20:39:36.059Z,3.96
2023-01-03T20:42:11.716Z,3.96
2023-01-03T20:44:47.399Z,3.95
2023-01-03T20:47:23.266Z,3.89
2023-01-03T20:49:55.486Z,3.91
2023-01-03T20:52:27.695Z,3.99
2023-01-03T20:55:00.501Z,4.05
2023-01-03T20:57:32.524Z,3.87
2023-01-03T21:00:05.520Z,3.94
2023-01-03T21:02:36.869Z,3.86
2023-01-03T21:05:09.133Z,3.82
2023-01-03T21:07:58.698Z,3.86
2023-01-03T21:10:33.411Z,3.82
2023-01-03T21:13:05.759Z,3.84
2023-01-03T21:15:38.877Z,3.78
2023-01-03T21:18:12.357Z,3.76
2023-01-03T21:20:44.940Z,3.86
2023-01-03T21:23:24.679Z,3.74
2023-01-03T21:25:56.879Z,3.63
2023-01-03T21:28:28.976Z,3.66
2023-01-03T21:31:05.393Z,3.65
2023-01-03T21:33:35.067Z,3.59
2023-01-03T21:36:08.780Z,3.56
2023-01-03T21:38:40.855Z,3.53
2023-01-03T21:41:28.120Z,3.50
2023-01-03T21:44:03.434Z,3.50
2023-01-03T21:46:35.578Z,3.52
2023-01-03T21:49:07.554Z,3.50
2023-01-03T21:51:39.597Z,3.55
2023-01-03T21:54:11.766Z,3.48
2023-01-03T21:56:47.170Z,3.48
2023-01-03T21:59:19.472Z,3.39
2023-01-03T22:02:09.410Z,3.33
2023-01-03T22:04:41.719Z,3.31
2023-01-03T22:07:13.601Z,3.28
2023-01-03T22:10:03.156Z,3.20
2023-01-03T22:12:35.203Z,3.20
2023-01-03T22:15:07.915Z,3.35
2023-01-03T22:17:40.453Z,3.20
2023-01-03T22:20:15.224Z,3.30
2023-01-03T22:22:47.759Z,3.20
2023-01-03T22:25:21.688Z,3.11
2023-01-03T22:27:58.564Z,3.21
2023-01-03T22:30:30.654Z,3.00
2023-01-03T22:33:04.410Z,3.04
2023-01-03T22:35:36.305Z,2.92
2023-01-03T22:38:08.259Z,3.02
2023-01-03T22:40:40.376Z,2.97
2023-01-03T22:43:12.668Z,3.02
2023-01-03T22:45:44.705Z,3.02
2023-01-03T22:48:16.815Z,3.10
2023-01-03T22:50:48.906Z,3.05
2023-01-03T22:53:20.950Z,3.05
2023-01-03T22:55:53.080Z,3.03
2023-01-03T22:58:25.134Z,3.10
2023-01-03T23:00:57.252Z,3.12
2023-01-03T23:03:29.451Z,3.04
2023-01-03T23:06:06.931Z,3.11
2023-01-03T23:08:39.305Z,3.11
2023-01-03T23:11:34.192Z,2.88
2023-01-03T23:14:11.236Z,2.78
2023-01-03T23:16:43.320Z,2.82
2023-01-03T23:19:17.784Z,2.73
2023-01-03T23:21:49.763Z,2.72
2023-01-03T23:24:25.367Z,2.74
2023-01-03T23:26:57.396Z,2.67
2023-01-03T23:29:29.288Z,2.68
2023-01-03T23:32:01.627Z,2.67
2023-01-03T23:34:33.585Z,2.64
2023-01-03T23:37:05.549Z,2.63
2023-01-03T23:39:37.474Z,2.63
2023-01-03T23:42:09.477Z,2.60
2023-01-03T23:44:41.446Z,2.55
2023-01-03T23:47:13.437Z,2.59
2023-01-03T23:49:45.672Z,2.54
2023-01-03T23:52:17.629Z,2.56
2023-01-03T23:54:54.627Z,2.52
2023-01-03T23:57:23.475Z,2.58
2023-01-03T23:59:55.415Z,2.59
